sensor_id;sensor_type;location;lat;lon;timestamp;P1;durP1;ratioP1;P2;durP2;ratioP2
19623;SDS011;9959;49.798;9.928;2023-07-09T00:00:47;11.25;;;6.28;;
19623;SDS011;9959;49.798;9.928;2023-07-09T00:03:15;13.98;;;6.50;;
19623;SDS011;9959;49.798;9.928;2023-07-09T00:05:47;9.68;;;5.80;;
19623;SDS011;9959;49.798;9.928;2023-07-09T00:08:21;8.60;;;5.28;;
19623;SDS011;9959;49.798;9.928;2023-07-09T00:10:57;9.02;;;5.18;;
19623;SDS011;9959;49.798;9.928;2023-07-09T00:13:25;12.60;;;5.65;;
19623;SDS011;9959;49.798;9.928;2023-07-09T00:15:57;9.73;;;5.32;;
19623;SDS011;9959;49.798;9.928;2023-07-09T00:18:27;11.63;;;5.47;;
19623;SDS011;9959;49.798;9.928;2023-07-09T00:20:54;11.50;;;6.05;;
19623;SDS011;9959;49.798;9.928;2023-07-09T00:23:21;11.68;;;6.65;;
19623;SDS011;9959;49.798;9.928;2023-07-09T00:25:48;16.65;;;8.15;;
19623;SDS011;9959;49.798;9.928;2023-07-09T00:28:16;11.88;;;6.30;;
19623;SDS011;9959;49.798;9.928;2023-07-09T00:30:44;14.55;;;7.53;;
19623;SDS011;9959;49.798;9.928;2023-07-09T00:33:12;16.38;;;7.95;;
19623;SDS011;9959;49.798;9.928;2023-07-09T00:35:45;12.65;;;6.85;;
19623;SDS011;9959;49.798;9.928;2023-07-09T00:38:20;10.10;;;6.80;;
19623;SDS011;9959;49.798;9.928;2023-07-09T00:40:58;19.42;;;6.68;;
19623;SDS011;9959;49.798;9.928;2023-07-09T00:43:27;12.20;;;7.38;;
19623;SDS011;9959;49.798;9.928;2023-07-09T00:48:47;10.90;;;6.43;;
19623;SDS011;9959;49.798;9.928;2023-07-09T00:51:27;12.68;;;6.68;;
19623;SDS011;9959;49.798;9.928;2023-07-09T00:53:57;12.77;;;6.88;;
19623;SDS011;9959;49.798;9.928;2023-07-09T00:56:29;12.80;;;7.57;;
19623;SDS011;9959;49.798;9.928;2023-07-09T00:59:07;13.60;;;7.00;;
19623;SDS011;9959;49.798;9.928;2023-07-09T01:01:41;13.43;;;7.18;;
19623;SDS011;9959;49.798;9.928;2023-07-09T01:04:09;10.40;;;6.07;;
19623;SDS011;9959;49.798;9.928;2023-07-09T01:06:44;9.80;;;6.30;;
19623;SDS011;9959;49.798;9.928;2023-07-09T01:09:14;10.25;;;5.72;;
19623;SDS011;9959;49.798;9.928;2023-07-09T01:11:42;11.10;;;5.90;;
19623;SDS011;9959;49.798;9.928;2023-07-09T01:14:10;9.07;;;5.47;;
19623;SDS011;9959;49.798;9.928;2023-07-09T01:16:44;11.40;;;6.10;;
19623;SDS011;9959;49.798;9.928;2023-07-09T01:19:28;9.02;;;5.70;;
19623;SDS011;9959;49.798;9.928;2023-07-09T01:22:00;10.98;;;6.18;;
19623;SDS011;9959;49.798;9.928;2023-07-09T01:27:21;10.73;;;6.07;;
19623;SDS011;9959;49.798;9.928;2023-07-09T01:29:54;9.48;;;5.57;;
19623;SDS011;9959;49.798;9.928;2023-07-09T01:32:22;10.60;;;6.32;;
19623;SDS011;9959;49.798;9.928;2023-07-09T01:34:50;13.00;;;6.05;;
19623;SDS011;9959;49.798;9.928;2023-07-09T01:37:23;12.98;;;6.30;;
19623;SDS011;9959;49.798;9.928;2023-07-09T01:39:52;9.63;;;6.00;;
19623;SDS011;9959;49.798;9.928;2023-07-09T01:42:21;9.95;;;5.45;;
19623;SDS011;9959;49.798;9.928;2023-07-09T01:44:51;10.80;;;5.90;;
19623;SDS011;9959;49.798;9.928;2023-07-09T01:47:20;12.18;;;6.10;;
19623;SDS011;9959;49.798;9.928;2023-07-09T01:49:49;10.38;;;5.75;;
19623;SDS011;9959;49.798;9.928;2023-07-09T01:52:16;10.30;;;6.35;;
19623;SDS011;9959;49.798;9.928;2023-07-09T01:54:45;11.18;;;6.18;;
19623;SDS011;9959;49.798;9.928;2023-07-09T01:57:16;8.70;;;5.18;;
19623;SDS011;9959;49.798;9.928;2023-07-09T01:59:50;14.00;;;6.10;;
19623;SDS011;9959;49.798;9.928;2023-07-09T02:02:21;14.32;;;6.30;;
19623;SDS011;9959;49.798;9.928;2023-07-09T02:04:50;10.32;;;6.15;;
19623;SDS011;9959;49.798;9.928;2023-07-09T02:07:22;11.10;;;6.78;;
19623;SDS011;9959;49.798;9.928;2023-07-09T02:09:51;15.65;;;7.80;;
19623;SDS011;9959;49.798;9.928;2023-07-09T02:12:18;11.50;;;6.03;;
19623;SDS011;9959;49.798;9.928;2023-07-09T02:14:45;11.55;;;6.20;;
19623;SDS011;9959;49.798;9.928;2023-07-09T02:17:13;19.45;;;7.53;;
19623;SDS011;9959;49.798;9.928;2023-07-09T02:19:41;11.20;;;6.38;;
19623;SDS011;9959;49.798;9.928;2023-07-09T02:22:08;12.25;;;6.22;;
19623;SDS011;9959;49.798;9.928;2023-07-09T02:24:35;11.52;;;6.72;;
19623;SDS011;9959;49.798;9.928;2023-07-09T02:27:03;11.73;;;6.95;;
19623;SDS011;9959;49.798;9.928;2023-07-09T02:29:32;10.27;;;6.22;;
19623;SDS011;9959;49.798;9.928;2023-07-09T02:32:00;10.88;;;6.28;;
19623;SDS011;9959;49.798;9.928;2023-07-09T02:34:28;14.38;;;7.40;;
19623;SDS011;9959;49.798;9.928;2023-07-09T02:36:56;11.98;;;7.20;;
19623;SDS011;9959;49.798;9.928;2023-07-09T02:39:24;10.77;;;6.85;;
19623;SDS011;9959;49.798;9.928;2023-07-09T02:41:51;13.75;;;7.72;;
19623;SDS011;9959;49.798;9.928;2023-07-09T02:44:18;20.08;;;7.72;;
19623;SDS011;9959;49.798;9.928;2023-07-09T02:46:45;10.90;;;6.90;;
19623;SDS011;9959;49.798;9.928;2023-07-09T02:49:13;11.23;;;6.82;;
19623;SDS011;9959;49.798;9.928;2023-07-09T02:51:40;13.93;;;7.50;;
19623;SDS011;9959;49.798;9.928;2023-07-09T02:54:07;11.70;;;7.75;;
19623;SDS011;9959;49.798;9.928;2023-07-09T02:56:34;12.63;;;7.03;;
19623;SDS011;9959;49.798;9.928;2023-07-09T02:59:02;13.13;;;7.38;;
19623;SDS011;9959;49.798;9.928;2023-07-09T03:01:29;12.65;;;7.60;;
19623;SDS011;9959;49.798;9.928;2023-07-09T03:03:57;13.52;;;6.88;;
19623;SDS011;9959;49.798;9.928;2023-07-09T03:06:26;9.35;;;6.18;;
19623;SDS011;9959;49.798;9.928;2023-07-09T03:08:54;11.57;;;6.22;;
19623;SDS011;9959;49.798;9.928;2023-07-09T03:11:21;10.13;;;6.38;;
19623;SDS011;9959;49.798;9.928;2023-07-09T03:13:48;11.55;;;5.85;;
19623;SDS011;9959;49.798;9.928;2023-07-09T03:16:15;9.45;;;6.18;;
19623;SDS011;9959;49.798;9.928;2023-07-09T03:18:43;12.68;;;6.25;;
19623;SDS011;9959;49.798;9.928;2023-07-09T03:21:09;14.60;;;6.70;;
19623;SDS011;9959;49.798;9.928;2023-07-09T03:23:36;11.35;;;6.53;;
19623;SDS011;9959;49.798;9.928;2023-07-09T03:26:03;15.57;;;7.10;;
19623;SDS011;9959;49.798;9.928;2023-07-09T03:28:31;16.77;;;7.07;;
19623;SDS011;9959;49.798;9.928;2023-07-09T03:30:59;11.32;;;6.97;;
19623;SDS011;9959;49.798;9.928;2023-07-09T03:33:26;12.80;;;6.97;;
19623;SDS011;9959;49.798;9.928;2023-07-09T03:35:53;11.80;;;6.43;;
19623;SDS011;9959;49.798;9.928;2023-07-09T03:38:20;14.75;;;6.80;;
19623;SDS011;9959;49.798;9.928;2023-07-09T03:40:51;11.38;;;6.63;;
19623;SDS011;9959;49.798;9.928;2023-07-09T03:43:19;11.80;;;7.10;;
19623;SDS011;9959;49.798;9.928;2023-07-09T03:45:47;11.63;;;7.10;;
19623;SDS011;9959;49.798;9.928;2023-07-09T03:48:15;13.25;;;6.80;;
19623;SDS011;9959;49.798;9.928;2023-07-09T03:50:44;11.05;;;7.22;;
19623;SDS011;9959;49.798;9.928;2023-07-09T03:53:12;11.43;;;6.65;;
19623;SDS011;9959;49.798;9.928;2023-07-09T03:55:40;15.13;;;7.53;;
19623;SDS011;9959;49.798;9.928;2023-07-09T03:58:07;13.43;;;7.13;;
19623;SDS011;9959;49.798;9.928;2023-07-09T04:00:34;14.23;;;7.88;;
19623;SDS011;9959;49.798;9.928;2023-07-09T04:03:01;14.13;;;7.22;;
19623;SDS011;9959;49.798;9.928;2023-07-09T04:05:28;13.02;;;7.65;;
19623;SDS011;9959;49.798;9.928;2023-07-09T04:07:55;11.05;;;7.50;;
19623;SDS011;9959;49.798;9.928;2023-07-09T04:10:22;11.77;;;7.40;;
19623;SDS011;9959;49.798;9.928;2023-07-09T04:12:49;12.40;;;7.10;;
19623;SDS011;9959;49.798;9.928;2023-07-09T04:15:16;13.20;;;8.10;;
19623;SDS011;9959;49.798;9.928;2023-07-09T04:17:43;11.98;;;7.82;;
19623;SDS011;9959;49.798;9.928;2023-07-09T04:20:10;13.00;;;7.93;;
19623;SDS011;9959;49.798;9.928;2023-07-09T04:22:37;16.58;;;8.73;;
19623;SDS011;9959;49.798;9.928;2023-07-09T04:25:05;15.18;;;8.02;;
19623;SDS011;9959;49.798;9.928;2023-07-09T04:27:33;12.80;;;7.88;;
19623;SDS011;9959;49.798;9.928;2023-07-09T04:30:00;15.43;;;8.38;;
19623;SDS011;9959;49.798;9.928;2023-07-09T04:32:27;13.88;;;7.25;;
19623;SDS011;9959;49.798;9.928;2023-07-09T04:34:54;16.10;;;7.38;;
19623;SDS011;9959;49.798;9.928;2023-07-09T04:37:21;17.92;;;7.70;;
19623;SDS011;9959;49.798;9.928;2023-07-09T04:39:48;11.68;;;7.85;;
19623;SDS011;9959;49.798;9.928;2023-07-09T04:42:16;15.70;;;8.20;;
19623;SDS011;9959;49.798;9.928;2023-07-09T04:44:44;15.07;;;8.05;;
19623;SDS011;9959;49.798;9.928;2023-07-09T04:47:12;13.07;;;7.80;;
19623;SDS011;9959;49.798;9.928;2023-07-09T04:49:39;17.98;;;8.32;;
19623;SDS011;9959;49.798;9.928;2023-07-09T04:52:06;13.75;;;7.32;;
19623;SDS011;9959;49.798;9.928;2023-07-09T04:54:33;14.30;;;8.20;;
19623;SDS011;9959;49.798;9.928;2023-07-09T04:57:00;14.05;;;8.15;;
19623;SDS011;9959;49.798;9.928;2023-07-09T04:59:28;14.23;;;8.02;;
19623;SDS011;9959;49.798;9.928;2023-07-09T05:01:55;12.10;;;7.78;;
19623;SDS011;9959;49.798;9.928;2023-07-09T05:04:22;13.48;;;7.75;;
19623;SDS011;9959;49.798;9.928;2023-07-09T05:06:48;13.98;;;8.23;;
19623;SDS011;9959;49.798;9.928;2023-07-09T05:09:15;13.90;;;8.18;;
19623;SDS011;9959;49.798;9.928;2023-07-09T05:11:42;14.15;;;7.90;;
19623;SDS011;9959;49.798;9.928;2023-07-09T05:14:09;22.90;;;7.85;;
19623;SDS011;9959;49.798;9.928;2023-07-09T05:16:36;11.32;;;7.47;;
19623;SDS011;9959;49.798;9.928;2023-07-09T05:19:03;12.68;;;8.80;;
19623;SDS011;9959;49.798;9.928;2023-07-09T05:21:30;15.90;;;8.02;;
19623;SDS011;9959;49.798;9.928;2023-07-09T05:23:56;14.07;;;7.93;;
19623;SDS011;9959;49.798;9.928;2023-07-09T05:26:23;13.80;;;8.25;;
19623;SDS011;9959;49.798;9.928;2023-07-09T05:28:50;15.68;;;8.75;;
19623;SDS011;9959;49.798;9.928;2023-07-09T05:31:17;15.27;;;7.85;;
19623;SDS011;9959;49.798;9.928;2023-07-09T05:33:45;14.18;;;7.95;;
19623;SDS011;9959;49.798;9.928;2023-07-09T05:36:12;14.57;;;7.72;;
19623;SDS011;9959;49.798;9.928;2023-07-09T05:38:42;11.48;;;7.80;;
19623;SDS011;9959;49.798;9.928;2023-07-09T05:41:10;12.77;;;7.97;;
19623;SDS011;9959;49.798;9.928;2023-07-09T05:43:37;13.48;;;8.40;;
19623;SDS011;9959;49.798;9.928;2023-07-09T05:46:04;16.42;;;8.13;;
19623;SDS011;9959;49.798;9.928;2023-07-09T05:48:32;13.65;;;7.88;;
19623;SDS011;9959;49.798;9.928;2023-07-09T05:50:59;15.05;;;8.10;;
19623;SDS011;9959;49.798;9.928;2023-07-09T05:53:26;11.93;;;7.78;;
19623;SDS011;9959;49.798;9.928;2023-07-09T05:55:54;15.23;;;8.60;;
19623;SDS011;9959;49.798;9.928;2023-07-09T05:58:22;16.63;;;9.25;;
19623;SDS011;9959;49.798;9.928;2023-07-09T06:00:50;13.05;;;7.72;;
19623;SDS011;9959;49.798;9.928;2023-07-09T06:03:20;12.20;;;8.35;;
19623;SDS011;9959;49.798;9.928;2023-07-09T06:05:49;11.88;;;8.27;;
19623;SDS011;9959;49.798;9.928;2023-07-09T06:08:16;16.60;;;8.77;;
19623;SDS011;9959;49.798;9.928;2023-07-09T06:10:54;15.10;;;8.90;;
19623;SDS011;9959;49.798;9.928;2023-07-09T06:13:25;12.98;;;7.78;;
19623;SDS011;9959;49.798;9.928;2023-07-09T06:15:53;13.07;;;8.38;;
19623;SDS011;9959;49.798;9.928;2023-07-09T06:18:22;12.68;;;8.02;;
19623;SDS011;9959;49.798;9.928;2023-07-09T06:20:50;13.27;;;8.00;;
19623;SDS011;9959;49.798;9.928;2023-07-09T06:23:19;14.95;;;8.32;;
19623;SDS011;9959;49.798;9.928;2023-07-09T06:25:46;12.93;;;7.95;;
19623;SDS011;9959;49.798;9.928;2023-07-09T06:28:15;15.15;;;8.05;;
19623;SDS011;9959;49.798;9.928;2023-07-09T06:30:42;11.65;;;7.50;;
19623;SDS011;9959;49.798;9.928;2023-07-09T06:33:10;12.52;;;8.52;;
19623;SDS011;9959;49.798;9.928;2023-07-09T06:35:39;13.02;;;8.50;;
19623;SDS011;9959;49.798;9.928;2023-07-09T06:38:12;16.23;;;9.23;;
19623;SDS011;9959;49.798;9.928;2023-07-09T06:40:39;13.43;;;8.13;;
19623;SDS011;9959;49.798;9.928;2023-07-09T06:43:06;14.73;;;8.07;;
19623;SDS011;9959;49.798;9.928;2023-07-09T06:45:35;13.50;;;8.13;;
19623;SDS011;9959;49.798;9.928;2023-07-09T06:48:03;11.98;;;8.02;;
19623;SDS011;9959;49.798;9.928;2023-07-09T06:50:34;10.93;;;8.23;;
19623;SDS011;9959;49.798;9.928;2023-07-09T06:53:01;14.68;;;9.07;;
19623;SDS011;9959;49.798;9.928;2023-07-09T06:55:28;14.75;;;8.68;;
19623;SDS011;9959;49.798;9.928;2023-07-09T06:57:55;14.30;;;8.40;;
19623;SDS011;9959;49.798;9.928;2023-07-09T07:00:21;15.40;;;9.35;;
19623;SDS011;9959;49.798;9.928;2023-07-09T07:02:48;15.07;;;9.00;;
19623;SDS011;9959;49.798;9.928;2023-07-09T07:05:16;14.90;;;8.60;;
19623;SDS011;9959;49.798;9.928;2023-07-09T07:07:44;12.38;;;8.60;;
19623;SDS011;9959;49.798;9.928;2023-07-09T07:10:11;13.27;;;8.80;;
19623;SDS011;9959;49.798;9.928;2023-07-09T07:12:42;15.95;;;9.18;;
19623;SDS011;9959;49.798;9.928;2023-07-09T07:15:11;18.15;;;8.95;;
19623;SDS011;9959;49.798;9.928;2023-07-09T07:17:39;13.27;;;8.77;;
19623;SDS011;9959;49.798;9.928;2023-07-09T07:20:07;13.45;;;8.30;;
19623;SDS011;9959;49.798;9.928;2023-07-09T07:22:36;17.90;;;8.70;;
19623;SDS011;9959;49.798;9.928;2023-07-09T07:25:04;14.73;;;8.27;;
19623;SDS011;9959;49.798;9.928;2023-07-09T07:27:32;11.13;;;8.35;;
19623;SDS011;9959;49.798;9.928;2023-07-09T07:29:59;13.27;;;8.38;;
19623;SDS011;9959;49.798;9.928;2023-07-09T07:32:27;15.55;;;8.57;;
19623;SDS011;9959;49.798;9.928;2023-07-09T07:34:54;13.80;;;8.48;;
19623;SDS011;9959;49.798;9.928;2023-07-09T07:37:21;13.75;;;8.68;;
19623;SDS011;9959;49.798;9.928;2023-07-09T07:39:48;13.63;;;8.68;;
19623;SDS011;9959;49.798;9.928;2023-07-09T07:42:15;12.85;;;7.88;;
19623;SDS011;9959;49.798;9.928;2023-07-09T07:44:43;12.35;;;8.48;;
19623;SDS011;9959;49.798;9.928;2023-07-09T07:47:10;10.88;;;8.45;;
19623;SDS011;9959;49.798;9.928;2023-07-09T07:49:38;15.18;;;9.27;;
19623;SDS011;9959;49.798;9.928;2023-07-09T07:52:06;14.82;;;8.02;;
19623;SDS011;9959;49.798;9.928;2023-07-09T07:54:33;14.73;;;9.13;;
19623;SDS011;9959;49.798;9.928;2023-07-09T07:57:01;9.85;;;8.48;;
19623;SDS011;9959;49.798;9.928;2023-07-09T07:59:28;14.38;;;8.02;;
19623;SDS011;9959;49.798;9.928;2023-07-09T08:01:55;14.18;;;8.60;;
19623;SDS011;9959;49.798;9.928;2023-07-09T08:04:22;10.07;;;8.43;;
19623;SDS011;9959;49.798;9.928;2023-07-09T08:06:49;10.52;;;8.57;;
19623;SDS011;9959;49.798;9.928;2023-07-09T08:09:16;13.18;;;8.85;;
19623;SDS011;9959;49.798;9.928;2023-07-09T08:11:43;11.98;;;8.65;;
19623;SDS011;9959;49.798;9.928;2023-07-09T08:14:10;9.52;;;8.18;;
19623;SDS011;9959;49.798;9.928;2023-07-09T08:16:38;13.88;;;8.80;;
19623;SDS011;9959;49.798;9.928;2023-07-09T08:19:05;13.35;;;8.38;;
19623;SDS011;9959;49.798;9.928;2023-07-09T08:21:32;9.95;;;8.20;;
19623;SDS011;9959;49.798;9.928;2023-07-09T08:23:59;11.57;;;7.50;;
19623;SDS011;9959;49.798;9.928;2023-07-09T08:26:26;10.50;;;7.50;;
19623;SDS011;9959;49.798;9.928;2023-07-09T08:28:53;9.75;;;7.38;;
19623;SDS011;9959;49.798;9.928;2023-07-09T08:31:20;11.00;;;7.47;;
19623;SDS011;9959;49.798;9.928;2023-07-09T08:33:47;12.38;;;7.20;;
19623;SDS011;9959;49.798;9.928;2023-07-09T08:36:14;9.77;;;7.00;;
19623;SDS011;9959;49.798;9.928;2023-07-09T08:38:41;11.02;;;7.18;;
19623;SDS011;9959;49.798;9.928;2023-07-09T08:41:18;11.10;;;6.03;;
19623;SDS011;9959;49.798;9.928;2023-07-09T08:43:56;12.23;;;7.07;;
19623;SDS011;9959;49.798;9.928;2023-07-09T08:49:19;9.93;;;6.47;;
19623;SDS011;9959;49.798;9.928;2023-07-09T08:51:50;10.75;;;6.35;;
19623;SDS011;9959;49.798;9.928;2023-07-09T08:54:26;10.75;;;6.70;;
19623;SDS011;9959;49.798;9.928;2023-07-09T08:56:57;8.43;;;5.93;;
19623;SDS011;9959;49.798;9.928;2023-07-09T08:59:34;7.30;;;5.80;;
19623;SDS011;9959;49.798;9.928;2023-07-09T09:02:01;8.90;;;6.55;;
19623;SDS011;9959;49.798;9.928;2023-07-09T09:04:34;8.15;;;5.82;;
19623;SDS011;9959;49.798;9.928;2023-07-09T09:09:38;8.38;;;6.15;;
19623;SDS011;9959;49.798;9.928;2023-07-09T09:12:12;7.82;;;5.68;;
19623;SDS011;9959;49.798;9.928;2023-07-09T09:14:44;8.95;;;5.90;;
19623;SDS011;9959;49.798;9.928;2023-07-09T09:17:17;8.45;;;5.80;;
19623;SDS011;9959;49.798;9.928;2023-07-09T09:19:47;6.32;;;5.18;;
19623;SDS011;9959;49.798;9.928;2023-07-09T09:22:29;6.75;;;4.95;;
19623;SDS011;9959;49.798;9.928;2023-07-09T09:27:55;5.93;;;4.88;;
19623;SDS011;9959;49.798;9.928;2023-07-09T09:30:23;8.52;;;5.30;;
19623;SDS011;9959;49.798;9.928;2023-07-09T09:35:19;6.30;;;4.90;;
19623;SDS011;9959;49.798;9.928;2023-07-09T09:37:52;6.55;;;5.10;;
19623;SDS011;9959;49.798;9.928;2023-07-09T09:40:20;8.43;;;4.93;;
19623;SDS011;9959;49.798;9.928;2023-07-09T09:42:50;6.65;;;4.70;;
19623;SDS011;9959;49.798;9.928;2023-07-09T09:45:19;7.10;;;5.30;;
19623;SDS011;9959;49.798;9.928;2023-07-09T09:47:48;6.20;;;4.65;;
19623;SDS011;9959;49.798;9.928;2023-07-09T09:50:16;8.40;;;5.30;;
19623;SDS011;9959;49.798;9.928;2023-07-09T09:52:44;5.65;;;4.13;;
19623;SDS011;9959;49.798;9.928;2023-07-09T09:55:24;7.63;;;5.25;;
19623;SDS011;9959;49.798;9.928;2023-07-09T09:57:57;9.27;;;4.78;;
19623;SDS011;9959;49.798;9.928;2023-07-09T10:00:25;5.70;;;4.97;;
19623;SDS011;9959;49.798;9.928;2023-07-09T10:02:57;6.90;;;4.80;;
19623;SDS011;9959;49.798;9.928;2023-07-09T10:05:42;6.97;;;5.20;;
19623;SDS011;9959;49.798;9.928;2023-07-09T10:08:22;8.15;;;4.88;;
19623;SDS011;9959;49.798;9.928;2023-07-09T10:11:24;9.73;;;5.32;;
19623;SDS011;9959;49.798;9.928;2023-07-09T10:13:53;7.10;;;5.00;;
19623;SDS011;9959;49.798;9.928;2023-07-09T10:16:27;6.25;;;5.10;;
19623;SDS011;9959;49.798;9.928;2023-07-09T10:19:05;6.95;;;5.20;;
19623;SDS011;9959;49.798;9.928;2023-07-09T10:21:45;6.10;;;5.50;;
19623;SDS011;9959;49.798;9.928;2023-07-09T10:24:30;6.25;;;5.20;;
19623;SDS011;9959;49.798;9.928;2023-07-09T10:27:19;7.65;;;5.40;;
19623;SDS011;9959;49.798;9.928;2023-07-09T10:30:41;7.18;;;5.40;;
19623;SDS011;9959;49.798;9.928;2023-07-09T10:33:10;6.13;;;5.28;;
19623;SDS011;9959;49.798;9.928;2023-07-09T10:35:45;9.52;;;5.13;;
19623;SDS011;9959;49.798;9.928;2023-07-09T10:41:20;7.05;;;5.03;;
19623;SDS011;9959;49.798;9.928;2023-07-09T10:43:57;8.02;;;5.10;;
19623;SDS011;9959;49.798;9.928;2023-07-09T10:46:31;5.70;;;4.80;;
19623;SDS011;9959;49.798;9.928;2023-07-09T10:49:01;8.40;;;5.15;;
19623;SDS011;9959;49.798;9.928;2023-07-09T10:51:36;9.82;;;5.05;;
19623;SDS011;9959;49.798;9.928;2023-07-09T11:00:15;11.25;;;5.18;;
19623;SDS011;9959;49.798;9.928;2023-07-09T11:02:47;7.82;;;5.57;;
19623;SDS011;9959;49.798;9.928;2023-07-09T11:05:21;8.80;;;5.53;;
19623;SDS011;9959;49.798;9.928;2023-07-09T11:07:56;7.00;;;4.93;;
19623;SDS011;9959;49.798;9.928;2023-07-09T11:11:03;6.07;;;4.78;;
19623;SDS011;9959;49.798;9.928;2023-07-09T11:13:44;7.38;;;5.22;;
19623;SDS011;9959;49.798;9.928;2023-07-09T11:16:27;7.18;;;5.05;;
19623;SDS011;9959;49.798;9.928;2023-07-09T11:18:58;7.60;;;5.03;;
19623;SDS011;9959;49.798;9.928;2023-07-09T11:21:27;7.85;;;4.82;;
19623;SDS011;9959;49.798;9.928;2023-07-09T11:23:56;9.15;;;5.50;;
19623;SDS011;9959;49.798;9.928;2023-07-09T11:26:29;5.95;;;4.75;;
19623;SDS011;9959;49.798;9.928;2023-07-09T11:31:34;8.30;;;4.93;;
19623;SDS011;9959;49.798;9.928;2023-07-09T11:34:26;8.90;;;5.13;;
19623;SDS011;9959;49.798;9.928;2023-07-09T11:39:30;8.98;;;5.38;;
19623;SDS011;9959;49.798;9.928;2023-07-09T11:45:09;4.70;;;4.28;;
19623;SDS011;9959;49.798;9.928;2023-07-09T11:47:49;7.50;;;5.05;;
19623;SDS011;9959;49.798;9.928;2023-07-09T11:50:22;9.20;;;5.82;;
19623;SDS011;9959;49.798;9.928;2023-07-09T11:52:53;5.57;;;4.63;;
19623;SDS011;9959;49.798;9.928;2023-07-09T11:55:27;6.07;;;4.90;;
19623;SDS011;9959;49.798;9.928;2023-07-09T11:58:13;7.50;;;4.90;;
19623;SDS011;9959;49.798;9.928;2023-07-09T12:00:44;6.05;;;5.18;;
19623;SDS011;9959;49.798;9.928;2023-07-09T12:03:19;6.35;;;5.10;;
19623;SDS011;9959;49.798;9.928;2023-07-09T12:05:53;7.07;;;5.03;;
19623;SDS011;9959;49.798;9.928;2023-07-09T12:08:42;6.18;;;4.63;;
19623;SDS011;9959;49.798;9.928;2023-07-09T12:13:51;6.47;;;4.82;;
19623;SDS011;9959;49.798;9.928;2023-07-09T12:16:23;9.10;;;4.68;;
19623;SDS011;9959;49.798;9.928;2023-07-09T12:18:52;7.30;;;4.65;;
19623;SDS011;9959;49.798;9.928;2023-07-09T12:21:20;9.65;;;4.97;;
19623;SDS011;9959;49.798;9.928;2023-07-09T12:23:49;5.60;;;4.68;;
19623;SDS011;9959;49.798;9.928;2023-07-09T12:26:18;5.70;;;4.47;;
19623;SDS011;9959;49.798;9.928;2023-07-09T12:28:52;7.25;;;5.10;;
19623;SDS011;9959;49.798;9.928;2023-07-09T12:31:25;8.00;;;4.75;;
19623;SDS011;9959;49.798;9.928;2023-07-09T12:33:55;7.65;;;5.28;;
19623;SDS011;9959;49.798;9.928;2023-07-09T12:36:27;8.38;;;4.65;;
19623;SDS011;9959;49.798;9.928;2023-07-09T12:38:55;6.80;;;4.60;;
19623;SDS011;9959;49.798;9.928;2023-07-09T12:41:48;6.90;;;5.00;;
19623;SDS011;9959;49.798;9.928;2023-07-09T12:44:16;6.63;;;4.75;;
19623;SDS011;9959;49.798;9.928;2023-07-09T12:46:44;6.55;;;4.82;;
19623;SDS011;9959;49.798;9.928;2023-07-09T12:49:18;8.40;;;5.05;;
19623;SDS011;9959;49.798;9.928;2023-07-09T12:51:55;6.07;;;4.60;;
19623;SDS011;9959;49.798;9.928;2023-07-09T12:54:23;7.43;;;5.07;;
19623;SDS011;9959;49.798;9.928;2023-07-09T12:56:51;7.72;;;4.90;;
19623;SDS011;9959;49.798;9.928;2023-07-09T12:59:24;7.80;;;4.90;;
19623;SDS011;9959;49.798;9.928;2023-07-09T13:01:57;7.15;;;4.40;;
19623;SDS011;9959;49.798;9.928;2023-07-09T13:04:38;5.82;;;4.82;;
19623;SDS011;9959;49.798;9.928;2023-07-09T13:07:18;7.93;;;4.82;;
19623;SDS011;9959;49.798;9.928;2023-07-09T13:09:52;7.22;;;4.60;;
19623;SDS011;9959;49.798;9.928;2023-07-09T13:12:22;6.25;;;5.07;;
19623;SDS011;9959;49.798;9.928;2023-07-09T13:14:56;6.53;;;4.95;;
19623;SDS011;9959;49.798;9.928;2023-07-09T13:17:29;8.98;;;5.25;;
19623;SDS011;9959;49.798;9.928;2023-07-09T13:19:58;7.32;;;5.28;;
19623;SDS011;9959;49.798;9.928;2023-07-09T13:22:27;10.40;;;5.30;;
19623;SDS011;9959;49.798;9.928;2023-07-09T13:24:55;5.32;;;4.82;;
19623;SDS011;9959;49.798;9.928;2023-07-09T13:27:24;6.22;;;4.40;;
19623;SDS011;9959;49.798;9.928;2023-07-09T13:29:52;7.10;;;4.85;;
19623;SDS011;9959;49.798;9.928;2023-07-09T13:32:19;6.35;;;4.60;;
19623;SDS011;9959;49.798;9.928;2023-07-09T13:34:46;6.57;;;5.07;;
19623;SDS011;9959;49.798;9.928;2023-07-09T13:37:13;8.95;;;5.00;;
19623;SDS011;9959;49.798;9.928;2023-07-09T13:39:42;9.27;;;4.82;;
19623;SDS011;9959;49.798;9.928;2023-07-09T13:42:11;9.65;;;5.05;;
19623;SDS011;9959;49.798;9.928;2023-07-09T13:44:39;8.80;;;4.80;;
19623;SDS011;9959;49.798;9.928;2023-07-09T13:47:11;8.75;;;5.28;;
19623;SDS011;9959;49.798;9.928;2023-07-09T13:49:41;6.38;;;5.20;;
19623;SDS011;9959;49.798;9.928;2023-07-09T13:52:13;5.72;;;4.35;;
19623;SDS011;9959;49.798;9.928;2023-07-09T13:54:43;7.53;;;4.70;;
19623;SDS011;9959;49.798;9.928;2023-07-09T13:57:15;8.18;;;4.55;;
19623;SDS011;9959;49.798;9.928;2023-07-09T13:59:44;7.78;;;4.95;;
19623;SDS011;9959;49.798;9.928;2023-07-09T14:04:59;7.05;;;5.07;;
19623;SDS011;9959;49.798;9.928;2023-07-09T14:07:33;8.98;;;5.03;;
19623;SDS011;9959;49.798;9.928;2023-07-09T14:10:03;9.02;;;4.60;;
19623;SDS011;9959;49.798;9.928;2023-07-09T14:12:32;8.48;;;4.90;;
19623;SDS011;9959;49.798;9.928;2023-07-09T14:15:00;6.97;;;4.60;;
19623;SDS011;9959;49.798;9.928;2023-07-09T14:17:28;10.38;;;5.57;;
19623;SDS011;9959;49.798;9.928;2023-07-09T14:19:55;7.25;;;5.28;;
19623;SDS011;9959;49.798;9.928;2023-07-09T14:22:35;6.38;;;4.65;;
19623;SDS011;9959;49.798;9.928;2023-07-09T14:25:04;7.93;;;5.20;;
19623;SDS011;9959;49.798;9.928;2023-07-09T14:27:32;6.30;;;5.07;;
19623;SDS011;9959;49.798;9.928;2023-07-09T14:29:58;8.82;;;5.38;;
19623;SDS011;9959;49.798;9.928;2023-07-09T14:35:01;6.55;;;4.70;;
19623;SDS011;9959;49.798;9.928;2023-07-09T14:37:29;7.80;;;5.05;;
19623;SDS011;9959;49.798;9.928;2023-07-09T14:39:56;9.75;;;5.35;;
19623;SDS011;9959;49.798;9.928;2023-07-09T14:42:23;6.30;;;5.35;;
19623;SDS011;9959;49.798;9.928;2023-07-09T14:44:50;8.70;;;4.90;;
19623;SDS011;9959;49.798;9.928;2023-07-09T14:47:20;7.53;;;5.30;;
19623;SDS011;9959;49.798;9.928;2023-07-09T14:49:48;6.90;;;4.80;;
19623;SDS011;9959;49.798;9.928;2023-07-09T14:52:18;7.70;;;5.53;;
19623;SDS011;9959;49.798;9.928;2023-07-09T14:54:48;7.15;;;4.55;;
19623;SDS011;9959;49.798;9.928;2023-07-09T14:57:18;6.97;;;5.05;;
19623;SDS011;9959;49.798;9.928;2023-07-09T14:59:49;5.55;;;4.43;;
19623;SDS011;9959;49.798;9.928;2023-07-09T15:05:02;7.63;;;4.65;;
19623;SDS011;9959;49.798;9.928;2023-07-09T15:07:31;8.65;;;4.90;;
19623;SDS011;9959;49.798;9.928;2023-07-09T15:09:59;5.68;;;5.13;;
19623;SDS011;9959;49.798;9.928;2023-07-09T15:12:28;6.70;;;4.97;;
19623;SDS011;9959;49.798;9.928;2023-07-09T15:15:06;9.85;;;5.35;;
19623;SDS011;9959;49.798;9.928;2023-07-09T15:17:40;6.32;;;4.50;;
19623;SDS011;9959;49.798;9.928;2023-07-09T15:20:12;9.30;;;5.07;;
19623;SDS011;9959;49.798;9.928;2023-07-09T15:22:41;7.68;;;4.95;;
19623;SDS011;9959;49.798;9.928;2023-07-09T15:25:14;6.53;;;4.40;;
19623;SDS011;9959;49.798;9.928;2023-07-09T15:27:43;6.25;;;4.93;;
19623;SDS011;9959;49.798;9.928;2023-07-09T15:30:20;7.47;;;5.00;;
19623;SDS011;9959;49.798;9.928;2023-07-09T15:32:49;7.25;;;5.10;;
19623;SDS011;9959;49.798;9.928;2023-07-09T15:35:18;7.20;;;5.13;;
19623;SDS011;9959;49.798;9.928;2023-07-09T15:37:46;9.80;;;5.20;;
19623;SDS011;9959;49.798;9.928;2023-07-09T15:40:20;7.40;;;4.72;;
19623;SDS011;9959;49.798;9.928;2023-07-09T15:42:52;8.70;;;5.35;;
19623;SDS011;9959;49.798;9.928;2023-07-09T15:45:21;8.10;;;4.70;;
19623;SDS011;9959;49.798;9.928;2023-07-09T15:47:49;7.40;;;5.18;;
19623;SDS011;9959;49.798;9.928;2023-07-09T15:50:25;10.32;;;5.22;;
19623;SDS011;9959;49.798;9.928;2023-07-09T15:52:53;9.93;;;5.50;;
19623;SDS011;9959;49.798;9.928;2023-07-09T15:55:25;8.85;;;5.47;;